Khabarovsk-Novy Airport
UHHH : now visible

Airfield :











YOU CAN JOIN US ON...

 
LOGIN :

Register | Disclaimer

   EN    FR    IT 

 









Legend :    VFR   Marginal VFR   IFR   Intensive IFR   Very Intensive IFR
Visi :
Ceiling :
>= 8 km
>= 3000ft
5 to 8 km
1000 to 3000 ft
1500m to 5 km
500 to 1000 ft
800 to 1500m
200 to 500 ft
< 800m
< 200 ft
Symbols :   Thunderstorms  Fog  Heavy snow  Heavy precipitations  Wind > 20 kt






- Airport Elevation : 244 ft
- IATA code : KHV


UHHH - Khabarovsk-Novy

CURRENT METAR :
  • 121030Z 26006MPS CAVOK M04/M13 Q1018 R23L/090060 NOSIG RMK QFE757/1009

EXPIRED METARs :
  • 121000Z 26007MPS CAVOK M04/M14 Q1017 R23L/090060 NOSIG RMK QFE756/1009
  • 120930Z 26007MPS CAVOK M04/M14 Q1017 R23L/090060 NOSIG RMK QFE756/1009
  • 120900Z 26007MPS CAVOK M04/M14 Q1017 R23L/090060 NOSIG RMK QFE756/1008
  • 120830Z 26008MPS CAVOK M04/M14 Q1017 R23L/090060 NOSIG RMK QFE756/1008
  • 120800Z 26007MPS CAVOK M03/M13 Q1016 R23L/090060 NOSIG RMK QFE756/1008

TAF TAF UHHH
Valid from the 12 at 09:00 until the 13 at 15:00 UTC


120745Z 1209/1315 26005MPS CAVOK
TEMPO 1209/1224 26007G12MPS



MET'MAP, your aeronautical weather chart ! - Copyright ORBIFLY December 2007 - Disclaimer

ORBIFLY MET'MAP TEAM :

Programming & Development : Alexandra Zaïnal
Concept & Development : Baudouin d'Aumeries
Co-Development & Prog : Marc-Olivier Méhu
Technical & hardware support : Manuel Goepfert

Contact : metmap@orbifly.com




SOURCES & CREDITS :

   NOAA       Earth
Advisory